sensor_id;sensor_type;location;lat;lon;timestamp;temperature;humidity
24250;DHT22;12379;49.820;8.648;2022-07-22T00:00:15;20.60;99.90
24250;DHT22;12379;49.820;8.648;2022-07-22T00:02:44;20.60;99.90
24250;DHT22;12379;49.820;8.648;2022-07-22T00:05:10;20.60;99.90
24250;DHT22;12379;49.820;8.648;2022-07-22T00:07:37;20.70;99.90
24250;DHT22;12379;49.820;8.648;2022-07-22T00:10:05;20.70;99.90
24250;DHT22;12379;49.820;8.648;2022-07-22T00:12:31;20.60;99.90
24250;DHT22;12379;49.820;8.648;2022-07-22T00:14:56;20.60;99.90
24250;DHT22;12379;49.820;8.648;2022-07-22T00:17:22;20.50;99.90
24250;DHT22;12379;49.820;8.648;2022-07-22T00:19:48;20.50;99.90
24250;DHT22;12379;49.820;8.648;2022-07-22T00:22:13;20.40;99.90
24250;DHT22;12379;49.820;8.648;2022-07-22T00:24:39;20.40;99.90
24250;DHT22;12379;49.820;8.648;2022-07-22T00:27:04;20.30;99.90
24250;DHT22;12379;49.820;8.648;2022-07-22T00:29:30;20.30;99.90
24250;DHT22;12379;49.820;8.648;2022-07-22T00:31:56;20.20;99.90
24250;DHT22;12379;49.820;8.648;2022-07-22T00:34:21;20.20;99.90
24250;DHT22;12379;49.820;8.648;2022-07-22T00:36:47;20.20;99.90
24250;DHT22;12379;49.820;8.648;2022-07-22T00:39:12;20.20;99.90
24250;DHT22;12379;49.820;8.648;2022-07-22T00:41:38;20.20;99.90
24250;DHT22;12379;49.820;8.648;2022-07-22T00:44:06;20.10;99.90
24250;DHT22;12379;49.820;8.648;2022-07-22T00:46:33;20.10;99.90
24250;DHT22;12379;49.820;8.648;2022-07-22T00:49:00;20.00;99.90
24250;DHT22;12379;49.820;8.648;2022-07-22T00:51:27;19.90;99.90
24250;DHT22;12379;49.820;8.648;2022-07-22T00:53:54;19.80;99.90
24250;DHT22;12379;49.820;8.648;2022-07-22T00:56:20;19.80;99.90
24250;DHT22;12379;49.820;8.648;2022-07-22T00:58:48;19.80;99.90
24250;DHT22;12379;49.820;8.648;2022-07-22T01:01:14;19.80;99.90
24250;DHT22;12379;49.820;8.648;2022-07-22T01:03:40;19.80;99.90
24250;DHT22;12379;49.820;8.648;2022-07-22T01:06:06;19.70;99.90
24250;DHT22;12379;49.820;8.648;2022-07-22T01:08:32;19.70;99.90
24250;DHT22;12379;49.820;8.648;2022-07-22T01:11:14;19.70;99.90
24250;DHT22;12379;49.820;8.648;2022-07-22T01:13:42;19.70;99.90
24250;DHT22;12379;49.820;8.648;2022-07-22T01:16:08;19.70;99.90
24250;DHT22;12379;49.820;8.648;2022-07-22T01:18:36;19.60;99.90
24250;DHT22;12379;49.820;8.648;2022-07-22T01:21:02;19.60;99.90
24250;DHT22;12379;49.820;8.648;2022-07-22T01:23:27;19.60;99.90
24250;DHT22;12379;49.820;8.648;2022-07-22T01:25:53;19.50;99.90
24250;DHT22;12379;49.820;8.648;2022-07-22T01:28:19;19.50;99.90
24250;DHT22;12379;49.820;8.648;2022-07-22T01:30:45;19.50;99.90
24250;DHT22;12379;49.820;8.648;2022-07-22T01:33:11;19.50;99.90
24250;DHT22;12379;49.820;8.648;2022-07-22T01:35:37;19.40;99.90
24250;DHT22;12379;49.820;8.648;2022-07-22T01:38:02;19.50;99.90
24250;DHT22;12379;49.820;8.648;2022-07-22T01:40:28;19.40;99.90
24250;DHT22;12379;49.820;8.648;2022-07-22T01:42:54;19.30;99.90
24250;DHT22;12379;49.820;8.648;2022-07-22T01:45:20;19.30;99.90
24250;DHT22;12379;49.820;8.648;2022-07-22T01:47:45;19.20;99.90
24250;DHT22;12379;49.820;8.648;2022-07-22T01:50:11;19.20;99.90
24250;DHT22;12379;49.820;8.648;2022-07-22T01:52:38;19.20;99.90
24250;DHT22;12379;49.820;8.648;2022-07-22T01:55:06;19.20;99.90
24250;DHT22;12379;49.820;8.648;2022-07-22T01:57:32;19.20;99.90
24250;DHT22;12379;49.820;8.648;2022-07-22T01:59:57;19.30;99.90
24250;DHT22;12379;49.820;8.648;2022-07-22T02:02:23;19.30;99.90
24250;DHT22;12379;49.820;8.648;2022-07-22T02:04:48;19.30;99.90
24250;DHT22;12379;49.820;8.648;2022-07-22T02:07:14;19.30;99.90
24250;DHT22;12379;49.820;8.648;2022-07-22T02:09:40;19.30;99.90
24250;DHT22;12379;49.820;8.648;2022-07-22T02:12:06;19.20;99.90
24250;DHT22;12379;49.820;8.648;2022-07-22T02:14:31;19.10;99.90
24250;DHT22;12379;49.820;8.648;2022-07-22T02:16:57;19.10;99.90
24250;DHT22;12379;49.820;8.648;2022-07-22T02:19:22;19.00;99.90
24250;DHT22;12379;49.820;8.648;2022-07-22T02:21:48;19.10;99.90
24250;DHT22;12379;49.820;8.648;2022-07-22T02:24:13;19.10;99.90
24250;DHT22;12379;49.820;8.648;2022-07-22T02:26:39;19.00;99.90
24250;DHT22;12379;49.820;8.648;2022-07-22T02:29:05;19.00;99.90
24250;DHT22;12379;49.820;8.648;2022-07-22T02:31:31;18.90;99.90
24250;DHT22;12379;49.820;8.648;2022-07-22T02:33:56;18.90;99.90
24250;DHT22;12379;49.820;8.648;2022-07-22T02:36:22;18.90;99.90
24250;DHT22;12379;49.820;8.648;2022-07-22T02:38:48;18.80;99.90
24250;DHT22;12379;49.820;8.648;2022-07-22T02:41:13;18.80;99.90
24250;DHT22;12379;49.820;8.648;2022-07-22T02:43:39;18.80;99.90
24250;DHT22;12379;49.820;8.648;2022-07-22T02:46:04;18.80;99.90
24250;DHT22;12379;49.820;8.648;2022-07-22T02:48:30;18.90;99.90
24250;DHT22;12379;49.820;8.648;2022-07-22T02:50:56;19.00;99.90
24250;DHT22;12379;49.820;8.648;2022-07-22T02:53:21;18.90;99.90
24250;DHT22;12379;49.820;8.648;2022-07-22T02:55:47;18.90;99.90
24250;DHT22;12379;49.820;8.648;2022-07-22T02:58:12;18.90;99.90
24250;DHT22;12379;49.820;8.648;2022-07-22T03:00:38;18.80;99.90
24250;DHT22;12379;49.820;8.648;2022-07-22T03:03:04;18.70;99.90
24250;DHT22;12379;49.820;8.648;2022-07-22T03:05:30;18.70;99.90
24250;DHT22;12379;49.820;8.648;2022-07-22T03:07:56;18.70;99.90
24250;DHT22;12379;49.820;8.648;2022-07-22T03:10:21;18.70;99.90
24250;DHT22;12379;49.820;8.648;2022-07-22T03:12:47;18.60;99.90
24250;DHT22;12379;49.820;8.648;2022-07-22T03:15:13;18.60;99.90
24250;DHT22;12379;49.820;8.648;2022-07-22T03:17:38;18.60;99.90
24250;DHT22;12379;49.820;8.648;2022-07-22T03:20:08;18.60;99.90
24250;DHT22;12379;49.820;8.648;2022-07-22T03:22:34;18.60;99.90
24250;DHT22;12379;49.820;8.648;2022-07-22T03:25:00;18.60;99.90
24250;DHT22;12379;49.820;8.648;2022-07-22T03:27:27;18.50;99.90
24250;DHT22;12379;49.820;8.648;2022-07-22T03:29:52;18.60;99.90
24250;DHT22;12379;49.820;8.648;2022-07-22T03:32:18;18.50;99.90
24250;DHT22;12379;49.820;8.648;2022-07-22T03:34:44;18.40;99.90
24250;DHT22;12379;49.820;8.648;2022-07-22T03:37:09;18.50;99.90
24250;DHT22;12379;49.820;8.648;2022-07-22T03:39:35;18.50;99.90
24250;DHT22;12379;49.820;8.648;2022-07-22T03:42:01;18.50;99.90
24250;DHT22;12379;49.820;8.648;2022-07-22T03:44:27;18.50;99.90
24250;DHT22;12379;49.820;8.648;2022-07-22T03:46:52;18.50;99.90
24250;DHT22;12379;49.820;8.648;2022-07-22T03:49:18;18.50;99.90
24250;DHT22;12379;49.820;8.648;2022-07-22T03:51:44;18.50;99.90
24250;DHT22;12379;49.820;8.648;2022-07-22T03:54:09;18.40;99.90
24250;DHT22;12379;49.820;8.648;2022-07-22T03:56:35;18.50;99.90
24250;DHT22;12379;49.820;8.648;2022-07-22T03:59:00;18.50;99.90
24250;DHT22;12379;49.820;8.648;2022-07-22T04:01:26;18.50;99.90
24250;DHT22;12379;49.820;8.648;2022-07-22T04:03:52;18.50;99.90
24250;DHT22;12379;49.820;8.648;2022-07-22T04:06:17;18.60;99.90
24250;DHT22;12379;49.820;8.648;2022-07-22T04:08:43;18.50;99.90
24250;DHT22;12379;49.820;8.648;2022-07-22T04:11:09;18.50;99.90
24250;DHT22;12379;49.820;8.648;2022-07-22T04:13:34;18.50;99.90
24250;DHT22;12379;49.820;8.648;2022-07-22T04:16:00;18.60;99.90
24250;DHT22;12379;49.820;8.648;2022-07-22T04:18:25;18.60;99.90
24250;DHT22;12379;49.820;8.648;2022-07-22T04:20:51;18.60;99.90
24250;DHT22;12379;49.820;8.648;2022-07-22T04:23:17;18.70;99.90
24250;DHT22;12379;49.820;8.648;2022-07-22T04:25:42;18.90;99.90
24250;DHT22;12379;49.820;8.648;2022-07-22T04:28:08;18.90;99.90
24250;DHT22;12379;49.820;8.648;2022-07-22T04:30:33;18.90;99.90
24250;DHT22;12379;49.820;8.648;2022-07-22T04:32:59;19.00;99.90
24250;DHT22;12379;49.820;8.648;2022-07-22T04:35:25;19.00;99.90
24250;DHT22;12379;49.820;8.648;2022-07-22T04:37:50;19.10;99.90
24250;DHT22;12379;49.820;8.648;2022-07-22T04:40:16;19.10;99.90
24250;DHT22;12379;49.820;8.648;2022-07-22T04:42:42;19.10;99.90
24250;DHT22;12379;49.820;8.648;2022-07-22T04:45:08;19.20;99.90
24250;DHT22;12379;49.820;8.648;2022-07-22T04:47:34;19.20;99.90
24250;DHT22;12379;49.820;8.648;2022-07-22T04:50:00;19.30;99.90
24250;DHT22;12379;49.820;8.648;2022-07-22T04:52:25;19.30;99.90
24250;DHT22;12379;49.820;8.648;2022-07-22T04:54:51;19.30;99.90
24250;DHT22;12379;49.820;8.648;2022-07-22T04:57:17;19.30;99.90
24250;DHT22;12379;49.820;8.648;2022-07-22T04:59:42;19.40;99.90
24250;DHT22;12379;49.820;8.648;2022-07-22T05:02:08;19.40;99.90
24250;DHT22;12379;49.820;8.648;2022-07-22T05:04:33;19.50;99.90
24250;DHT22;12379;49.820;8.648;2022-07-22T05:06:59;19.50;99.90
24250;DHT22;12379;49.820;8.648;2022-07-22T05:09:25;19.60;99.90
24250;DHT22;12379;49.820;8.648;2022-07-22T05:11:50;19.60;99.90
24250;DHT22;12379;49.820;8.648;2022-07-22T05:14:16;19.70;99.90
24250;DHT22;12379;49.820;8.648;2022-07-22T05:16:42;19.70;99.90
24250;DHT22;12379;49.820;8.648;2022-07-22T05:19:07;19.70;99.90
24250;DHT22;12379;49.820;8.648;2022-07-22T05:21:33;19.70;99.90
24250;DHT22;12379;49.820;8.648;2022-07-22T05:23:59;19.80;99.90
24250;DHT22;12379;49.820;8.648;2022-07-22T05:26:24;19.80;99.90
24250;DHT22;12379;49.820;8.648;2022-07-22T05:28:50;19.90;99.90
24250;DHT22;12379;49.820;8.648;2022-07-22T05:31:16;19.90;99.90
24250;DHT22;12379;49.820;8.648;2022-07-22T05:33:43;19.90;99.90
24250;DHT22;12379;49.820;8.648;2022-07-22T05:36:08;20.00;99.90
24250;DHT22;12379;49.820;8.648;2022-07-22T05:38:35;19.90;99.90
24250;DHT22;12379;49.820;8.648;2022-07-22T05:41:01;20.00;99.90
24250;DHT22;12379;49.820;8.648;2022-07-22T05:43:28;20.00;99.90
24250;DHT22;12379;49.820;8.648;2022-07-22T05:45:53;19.90;99.90
24250;DHT22;12379;49.820;8.648;2022-07-22T05:48:19;20.00;99.90
24250;DHT22;12379;49.820;8.648;2022-07-22T05:50:44;20.10;99.90
24250;DHT22;12379;49.820;8.648;2022-07-22T05:53:10;20.10;99.90
24250;DHT22;12379;49.820;8.648;2022-07-22T05:55:36;20.10;99.90
24250;DHT22;12379;49.820;8.648;2022-07-22T05:58:01;20.20;99.90
24250;DHT22;12379;49.820;8.648;2022-07-22T06:00:27;20.20;99.90
24250;DHT22;12379;49.820;8.648;2022-07-22T06:02:52;20.10;99.90
24250;DHT22;12379;49.820;8.648;2022-07-22T06:05:18;20.30;99.90
24250;DHT22;12379;49.820;8.648;2022-07-22T06:07:47;20.30;99.90
24250;DHT22;12379;49.820;8.648;2022-07-22T06:10:15;20.40;99.90
24250;DHT22;12379;49.820;8.648;2022-07-22T06:12:41;20.40;99.90
24250;DHT22;12379;49.820;8.648;2022-07-22T06:15:07;20.50;99.90
24250;DHT22;12379;49.820;8.648;2022-07-22T06:17:32;20.50;99.90
24250;DHT22;12379;49.820;8.648;2022-07-22T06:19:58;20.60;99.90
24250;DHT22;12379;49.820;8.648;2022-07-22T06:22:23;20.60;99.90
24250;DHT22;12379;49.820;8.648;2022-07-22T06:24:49;21.10;99.90
24250;DHT22;12379;49.820;8.648;2022-07-22T06:27:14;21.60;99.90
24250;DHT22;12379;49.820;8.648;2022-07-22T06:29:44;22.10;99.90
24250;DHT22;12379;49.820;8.648;2022-07-22T06:32:12;22.00;99.90
24250;DHT22;12379;49.820;8.648;2022-07-22T06:34:37;22.00;99.90
24250;DHT22;12379;49.820;8.648;2022-07-22T06:37:04;22.40;99.90
24250;DHT22;12379;49.820;8.648;2022-07-22T06:39:30;22.80;99.90
24250;DHT22;12379;49.820;8.648;2022-07-22T06:41:56;23.50;99.90
24250;DHT22;12379;49.820;8.648;2022-07-22T06:44:21;24.30;99.90
24250;DHT22;12379;49.820;8.648;2022-07-22T06:46:47;25.00;99.90
24250;DHT22;12379;49.820;8.648;2022-07-22T06:49:13;25.50;99.90
24250;DHT22;12379;49.820;8.648;2022-07-22T06:51:39;26.00;99.90
24250;DHT22;12379;49.820;8.648;2022-07-22T06:54:04;27.00;98.90
24250;DHT22;12379;49.820;8.648;2022-07-22T06:56:30;27.60;95.90
24250;DHT22;12379;49.820;8.648;2022-07-22T06:58:55;27.20;95.80
24250;DHT22;12379;49.820;8.648;2022-07-22T07:01:21;26.50;96.00
24250;DHT22;12379;49.820;8.648;2022-07-22T07:03:47;26.10;97.00
24250;DHT22;12379;49.820;8.648;2022-07-22T07:06:12;26.60;96.60
24250;DHT22;12379;49.820;8.648;2022-07-22T07:08:39;26.80;96.00
24250;DHT22;12379;49.820;8.648;2022-07-22T07:11:05;26.40;96.10
24250;DHT22;12379;49.820;8.648;2022-07-22T07:13:30;26.90;96.10
24250;DHT22;12379;49.820;8.648;2022-07-22T07:15:57;27.30;95.30
24250;DHT22;12379;49.820;8.648;2022-07-22T07:18:27;27.80;94.30
24250;DHT22;12379;49.820;8.648;2022-07-22T07:20:53;28.30;93.60
24250;DHT22;12379;49.820;8.648;2022-07-22T07:23:19;28.50;92.30
24250;DHT22;12379;49.820;8.648;2022-07-22T07:25:44;28.80;92.20
24250;DHT22;12379;49.820;8.648;2022-07-22T07:28:10;28.80;91.10
24250;DHT22;12379;49.820;8.648;2022-07-22T07:30:36;28.60;91.30
24250;DHT22;12379;49.820;8.648;2022-07-22T07:33:01;28.80;91.10
24250;DHT22;12379;49.820;8.648;2022-07-22T07:35:28;28.70;91.10
24250;DHT22;12379;49.820;8.648;2022-07-22T07:37:53;28.50;90.60
24250;DHT22;12379;49.820;8.648;2022-07-22T07:40:19;28.30;91.20
24250;DHT22;12379;49.820;8.648;2022-07-22T07:42:45;28.90;90.90
24250;DHT22;12379;49.820;8.648;2022-07-22T07:45:11;29.10;89.10
24250;DHT22;12379;49.820;8.648;2022-07-22T07:47:37;29.10;89.10
24250;DHT22;12379;49.820;8.648;2022-07-22T07:50:07;28.80;90.00
24250;DHT22;12379;49.820;8.648;2022-07-22T07:52:46;28.90;90.00
24250;DHT22;12379;49.820;8.648;2022-07-22T07:55:13;28.70;90.00
24250;DHT22;12379;49.820;8.648;2022-07-22T07:57:39;28.70;89.00
24250;DHT22;12379;49.820;8.648;2022-07-22T08:00:09;28.70;90.00
24250;DHT22;12379;49.820;8.648;2022-07-22T08:02:35;29.20;87.30
24250;DHT22;12379;49.820;8.648;2022-07-22T08:07:41;29.40;86.50
24250;DHT22;12379;49.820;8.648;2022-07-22T08:10:07;29.30;87.60
24250;DHT22;12379;49.820;8.648;2022-07-22T08:12:32;29.40;88.10
24250;DHT22;12379;49.820;8.648;2022-07-22T08:14:58;29.40;87.00
24250;DHT22;12379;49.820;8.648;2022-07-22T08:17:24;29.90;85.40
24250;DHT22;12379;49.820;8.648;2022-07-22T08:19:50;30.10;83.40
24250;DHT22;12379;49.820;8.648;2022-07-22T08:22:15;29.80;84.50
24250;DHT22;12379;49.820;8.648;2022-07-22T08:24:41;29.30;84.10
24250;DHT22;12379;49.820;8.648;2022-07-22T08:27:07;29.70;83.70
24250;DHT22;12379;49.820;8.648;2022-07-22T08:29:33;29.70;83.70
24250;DHT22;12379;49.820;8.648;2022-07-22T08:34:30;29.40;83.80
24250;DHT22;12379;49.820;8.648;2022-07-22T08:36:59;29.40;83.90
24250;DHT22;12379;49.820;8.648;2022-07-22T08:39:25;28.80;83.80
24250;DHT22;12379;49.820;8.648;2022-07-22T08:41:51;28.70;84.30
24250;DHT22;12379;49.820;8.648;2022-07-22T08:44:17;28.80;85.20
24250;DHT22;12379;49.820;8.648;2022-07-22T08:46:47;28.80;83.80
24250;DHT22;12379;49.820;8.648;2022-07-22T08:54:35;28.60;84.40
24250;DHT22;12379;49.820;8.648;2022-07-22T08:57:01;28.70;84.50
24250;DHT22;12379;49.820;8.648;2022-07-22T08:59:27;29.20;84.80
24250;DHT22;12379;49.820;8.648;2022-07-22T09:02:08;29.60;83.10
24250;DHT22;12379;49.820;8.648;2022-07-22T09:04:52;29.70;83.00
24250;DHT22;12379;49.820;8.648;2022-07-22T09:07:33;29.20;82.30
24250;DHT22;12379;49.820;8.648;2022-07-22T09:10:00;28.90;82.20
24250;DHT22;12379;49.820;8.648;2022-07-22T09:12:27;28.80;83.60
24250;DHT22;12379;49.820;8.648;2022-07-22T09:14:56;29.10;84.30
24250;DHT22;12379;49.820;8.648;2022-07-22T09:17:34;29.30;83.60
24250;DHT22;12379;49.820;8.648;2022-07-22T09:20:20;29.60;83.70
24250;DHT22;12379;49.820;8.648;2022-07-22T09:22:52;29.70;82.10
24250;DHT22;12379;49.820;8.648;2022-07-22T09:27:48;29.20;82.00
24250;DHT22;12379;49.820;8.648;2022-07-22T09:30:20;29.20;81.60
24250;DHT22;12379;49.820;8.648;2022-07-22T09:32:47;29.10;83.20
24250;DHT22;12379;49.820;8.648;2022-07-22T09:35:16;29.20;81.90
24250;DHT22;12379;49.820;8.648;2022-07-22T09:40:21;29.40;81.10
24250;DHT22;12379;49.820;8.648;2022-07-22T09:43:00;29.00;80.40
24250;DHT22;12379;49.820;8.648;2022-07-22T09:48:02;28.30;83.30
24250;DHT22;12379;49.820;8.648;2022-07-22T09:55:42;29.10;82.30
24250;DHT22;12379;49.820;8.648;2022-07-22T09:58:08;29.30;82.00
24250;DHT22;12379;49.820;8.648;2022-07-22T10:00:36;29.30;79.80
24250;DHT22;12379;49.820;8.648;2022-07-22T10:03:25;29.20;79.80
24250;DHT22;12379;49.820;8.648;2022-07-22T10:06:09;29.20;79.50
24250;DHT22;12379;49.820;8.648;2022-07-22T10:08:36;29.10;80.00
24250;DHT22;12379;49.820;8.648;2022-07-22T10:11:07;28.90;79.70
24250;DHT22;12379;49.820;8.648;2022-07-22T10:13:39;28.90;80.20
24250;DHT22;12379;49.820;8.648;2022-07-22T10:16:08;28.80;79.20
24250;DHT22;12379;49.820;8.648;2022-07-22T10:18:35;29.00;78.90
24250;DHT22;12379;49.820;8.648;2022-07-22T10:21:13;29.30;78.80
24250;DHT22;12379;49.820;8.648;2022-07-22T10:26:54;29.10;77.70
24250;DHT22;12379;49.820;8.648;2022-07-22T10:29:31;29.00;77.80
24250;DHT22;12379;49.820;8.648;2022-07-22T10:40:22;29.10;78.80
24250;DHT22;12379;49.820;8.648;2022-07-22T10:45:27;28.70;79.00
24250;DHT22;12379;49.820;8.648;2022-07-22T10:48:10;29.00;78.00
24250;DHT22;12379;49.820;8.648;2022-07-22T10:53:13;29.00;77.20
24250;DHT22;12379;49.820;8.648;2022-07-22T10:56:12;28.90;77.10
24250;DHT22;12379;49.820;8.648;2022-07-22T10:58:54;28.70;77.50
24250;DHT22;12379;49.820;8.648;2022-07-22T11:01:26;28.80;78.20
24250;DHT22;12379;49.820;8.648;2022-07-22T11:04:21;28.90;75.00
24250;DHT22;12379;49.820;8.648;2022-07-22T11:07:05;28.90;74.80
24250;DHT22;12379;49.820;8.648;2022-07-22T11:09:34;28.70;75.70
24250;DHT22;12379;49.820;8.648;2022-07-22T11:12:02;28.60;75.40
24250;DHT22;12379;49.820;8.648;2022-07-22T11:14:34;28.70;75.50
24250;DHT22;12379;49.820;8.648;2022-07-22T11:17:11;28.60;74.40
24250;DHT22;12379;49.820;8.648;2022-07-22T11:19:43;28.50;75.50
24250;DHT22;12379;49.820;8.648;2022-07-22T11:22:11;28.40;75.30
24250;DHT22;12379;49.820;8.648;2022-07-22T11:24:41;28.30;75.90
24250;DHT22;12379;49.820;8.648;2022-07-22T11:27:14;28.30;75.00
24250;DHT22;12379;49.820;8.648;2022-07-22T11:29:51;28.30;74.40
24250;DHT22;12379;49.820;8.648;2022-07-22T11:32:24;28.30;74.10
24250;DHT22;12379;49.820;8.648;2022-07-22T11:34:51;28.40;75.70
24250;DHT22;12379;49.820;8.648;2022-07-22T11:37:19;28.40;75.70
24250;DHT22;12379;49.820;8.648;2022-07-22T11:39:46;28.30;76.90
24250;DHT22;12379;49.820;8.648;2022-07-22T11:42:14;28.30;77.30
24250;DHT22;12379;49.820;8.648;2022-07-22T11:44:40;28.30;76.90
24250;DHT22;12379;49.820;8.648;2022-07-22T11:47:08;28.40;76.10
24250;DHT22;12379;49.820;8.648;2022-07-22T11:49:37;28.30;74.80
24250;DHT22;12379;49.820;8.648;2022-07-22T11:52:05;28.30;75.60
24250;DHT22;12379;49.820;8.648;2022-07-22T11:57:08;28.50;75.50
24250;DHT22;12379;49.820;8.648;2022-07-22T11:59:34;28.60;75.10
24250;DHT22;12379;49.820;8.648;2022-07-22T12:02:02;28.50;73.50
24250;DHT22;12379;49.820;8.648;2022-07-22T12:04:29;28.80;76.00
24250;DHT22;12379;49.820;8.648;2022-07-22T12:06:58;28.90;75.60
24250;DHT22;12379;49.820;8.648;2022-07-22T12:09:28;28.90;74.90
24250;DHT22;12379;49.820;8.648;2022-07-22T12:11:56;29.00;75.10
24250;DHT22;12379;49.820;8.648;2022-07-22T12:14:30;29.20;74.00
24250;DHT22;12379;49.820;8.648;2022-07-22T12:17:06;29.30;73.70
24250;DHT22;12379;49.820;8.648;2022-07-22T12:19:34;29.30;74.10
24250;DHT22;12379;49.820;8.648;2022-07-22T12:22:04;29.30;75.30
24250;DHT22;12379;49.820;8.648;2022-07-22T12:27:05;29.40;73.60
24250;DHT22;12379;49.820;8.648;2022-07-22T12:32:47;29.50;73.20
24250;DHT22;12379;49.820;8.648;2022-07-22T12:35:00;29.50;72.50
24250;DHT22;12379;49.820;8.648;2022-07-22T12:37:31;29.50;72.30
24250;DHT22;12379;49.820;8.648;2022-07-22T12:40:04;29.60;70.70
24250;DHT22;12379;49.820;8.648;2022-07-22T12:45:13;29.80;71.70
24250;DHT22;12379;49.820;8.648;2022-07-22T12:47:54;29.80;71.90
24250;DHT22;12379;49.820;8.648;2022-07-22T12:50:41;29.90;70.20
24250;DHT22;12379;49.820;8.648;2022-07-22T12:55:51;30.00;69.20
24250;DHT22;12379;49.820;8.648;2022-07-22T12:58:18;30.00;69.40
24250;DHT22;12379;49.820;8.648;2022-07-22T13:00:46;30.20;69.60
24250;DHT22;12379;49.820;8.648;2022-07-22T13:03:13;30.10;69.60
24250;DHT22;12379;49.820;8.648;2022-07-22T13:05:40;30.00;68.90
24250;DHT22;12379;49.820;8.648;2022-07-22T13:08:07;30.00;70.20
24250;DHT22;12379;49.820;8.648;2022-07-22T13:10:33;30.10;70.30
24250;DHT22;12379;49.820;8.648;2022-07-22T13:12:59;30.20;69.00
24250;DHT22;12379;49.820;8.648;2022-07-22T13:15:25;30.30;70.00
24250;DHT22;12379;49.820;8.648;2022-07-22T13:17:54;30.40;69.00
24250;DHT22;12379;49.820;8.648;2022-07-22T13:20:20;30.40;68.60
24250;DHT22;12379;49.820;8.648;2022-07-22T13:22:47;30.40;68.90
24250;DHT22;12379;49.820;8.648;2022-07-22T13:25:13;30.30;68.80
24250;DHT22;12379;49.820;8.648;2022-07-22T13:27:41;30.30;69.00
24250;DHT22;12379;49.820;8.648;2022-07-22T13:30:08;30.40;68.40
24250;DHT22;12379;49.820;8.648;2022-07-22T13:32:39;30.30;67.30
24250;DHT22;12379;49.820;8.648;2022-07-22T13:35:10;30.40;68.70
24250;DHT22;12379;49.820;8.648;2022-07-22T13:40:46;30.50;68.20
24250;DHT22;12379;49.820;8.648;2022-07-22T13:43:19;30.40;67.50
24250;DHT22;12379;49.820;8.648;2022-07-22T13:45:52;30.50;69.00
24250;DHT22;12379;49.820;8.648;2022-07-22T13:48:21;30.50;67.70
24250;DHT22;12379;49.820;8.648;2022-07-22T13:50:47;30.70;67.20
24250;DHT22;12379;49.820;8.648;2022-07-22T13:53:13;30.60;66.70
24250;DHT22;12379;49.820;8.648;2022-07-22T13:55:39;30.60;67.40
24250;DHT22;12379;49.820;8.648;2022-07-22T13:58:10;30.50;67.00
24250;DHT22;12379;49.820;8.648;2022-07-22T14:00:43;30.60;67.80
24250;DHT22;12379;49.820;8.648;2022-07-22T14:03:12;30.60;67.70
24250;DHT22;12379;49.820;8.648;2022-07-22T14:05:38;30.60;68.40
24250;DHT22;12379;49.820;8.648;2022-07-22T14:08:10;30.70;68.00
24250;DHT22;12379;49.820;8.648;2022-07-22T14:10:42;30.90;67.20
24250;DHT22;12379;49.820;8.648;2022-07-22T14:13:11;30.90;67.40
24250;DHT22;12379;49.820;8.648;2022-07-22T14:15:42;30.90;66.70
24250;DHT22;12379;49.820;8.648;2022-07-22T14:18:08;30.90;67.20
24250;DHT22;12379;49.820;8.648;2022-07-22T14:20:35;30.90;67.00
24250;DHT22;12379;49.820;8.648;2022-07-22T14:23:04;31.00;65.90
24250;DHT22;12379;49.820;8.648;2022-07-22T14:25:36;31.00;65.50
24250;DHT22;12379;49.820;8.648;2022-07-22T14:28:06;30.80;65.20
24250;DHT22;12379;49.820;8.648;2022-07-22T14:30:33;30.90;67.80
24250;DHT22;12379;49.820;8.648;2022-07-22T14:32:59;31.10;66.20
24250;DHT22;12379;49.820;8.648;2022-07-22T14:35:26;31.00;65.70
24250;DHT22;12379;49.820;8.648;2022-07-22T14:37:59;31.20;67.30
24250;DHT22;12379;49.820;8.648;2022-07-22T14:40:25;31.40;65.00
24250;DHT22;12379;49.820;8.648;2022-07-22T14:42:51;31.60;64.30
24250;DHT22;12379;49.820;8.648;2022-07-22T14:45:17;31.50;63.60
24250;DHT22;12379;49.820;8.648;2022-07-22T14:47:42;31.50;63.20
24250;DHT22;12379;49.820;8.648;2022-07-22T14:50:08;31.40;64.70
24250;DHT22;12379;49.820;8.648;2022-07-22T14:52:36;31.50;63.50
24250;DHT22;12379;49.820;8.648;2022-07-22T14:55:02;31.50;62.90
24250;DHT22;12379;49.820;8.648;2022-07-22T14:57:48;31.50;62.90
24250;DHT22;12379;49.820;8.648;2022-07-22T15:00:14;31.30;63.20
24250;DHT22;12379;49.820;8.648;2022-07-22T15:02:43;31.40;64.00
24250;DHT22;12379;49.820;8.648;2022-07-22T15:05:09;31.60;62.50
24250;DHT22;12379;49.820;8.648;2022-07-22T15:07:35;31.70;62.90
24250;DHT22;12379;49.820;8.648;2022-07-22T15:10:01;31.70;62.70
24250;DHT22;12379;49.820;8.648;2022-07-22T15:12:26;31.40;61.50
24250;DHT22;12379;49.820;8.648;2022-07-22T15:15:00;31.40;61.70
24250;DHT22;12379;49.820;8.648;2022-07-22T15:17:26;31.60;62.20
24250;DHT22;12379;49.820;8.648;2022-07-22T15:19:51;31.60;62.60
24250;DHT22;12379;49.820;8.648;2022-07-22T15:22:26;31.60;62.30
24250;DHT22;12379;49.820;8.648;2022-07-22T15:24:53;31.40;62.80
24250;DHT22;12379;49.820;8.648;2022-07-22T15:27:19;31.40;62.20
24250;DHT22;12379;49.820;8.648;2022-07-22T15:29:45;31.50;62.70
24250;DHT22;12379;49.820;8.648;2022-07-22T15:32:16;31.50;63.80
24250;DHT22;12379;49.820;8.648;2022-07-22T15:34:42;31.50;62.60
24250;DHT22;12379;49.820;8.648;2022-07-22T15:37:08;31.30;61.40
24250;DHT22;12379;49.820;8.648;2022-07-22T15:39:34;31.30;62.20
24250;DHT22;12379;49.820;8.648;2022-07-22T15:42:00;31.30;62.70
24250;DHT22;12379;49.820;8.648;2022-07-22T15:44:28;31.30;63.40
24250;DHT22;12379;49.820;8.648;2022-07-22T15:46:54;31.20;62.10
24250;DHT22;12379;49.820;8.648;2022-07-22T15:49:21;31.20;62.30
24250;DHT22;12379;49.820;8.648;2022-07-22T15:51:47;31.10;62.40
24250;DHT22;12379;49.820;8.648;2022-07-22T15:54:13;31.00;62.60
24250;DHT22;12379;49.820;8.648;2022-07-22T15:56:41;30.90;63.50
24250;DHT22;12379;49.820;8.648;2022-07-22T15:59:07;30.60;63.00
24250;DHT22;12379;49.820;8.648;2022-07-22T16:01:51;30.50;64.70
24250;DHT22;12379;49.820;8.648;2022-07-22T16:04:17;30.60;65.00
24250;DHT22;12379;49.820;8.648;2022-07-22T16:06:44;30.60;64.90
24250;DHT22;12379;49.820;8.648;2022-07-22T16:28:02;30.60;65.20
24250;DHT22;12379;49.820;8.648;2022-07-22T16:30:28;30.60;64.40
24250;DHT22;12379;49.820;8.648;2022-07-22T16:32:54;30.40;65.40
24250;DHT22;12379;49.820;8.648;2022-07-22T16:35:20;30.40;64.40
24250;DHT22;12379;49.820;8.648;2022-07-22T16:40:22;30.40;66.00
24250;DHT22;12379;49.820;8.648;2022-07-22T16:42:48;30.40;64.70
24250;DHT22;12379;49.820;8.648;2022-07-22T16:45:14;30.30;65.50
24250;DHT22;12379;49.820;8.648;2022-07-22T16:47:39;30.20;64.90
24250;DHT22;12379;49.820;8.648;2022-07-22T16:50:18;30.10;65.40